sensor_id;sensor_type;location;lat;lon;timestamp;pressure;altitude;pressure_sealevel;temperature;humidity
37892;BME280;45797;47.466;9.486;2023-01-16T00:02:33;94879.56;;;4.81;63.12
37892;BME280;45797;47.466;9.486;2023-01-16T00:07:37;94857.63;;;4.87;63.03
37892;BME280;45797;47.466;9.486;2023-01-16T00:12:38;94858.47;;;5.00;63.03
37892;BME280;45797;47.466;9.486;2023-01-16T00:17:40;94843.00;;;5.11;62.60
37892;BME280;45797;47.466;9.486;2023-01-16T00:22:51;94840.34;;;5.13;62.24
37892;BME280;45797;47.466;9.486;2023-01-16T00:27:51;94835.56;;;5.20;62.61
37892;BME280;45797;47.466;9.486;2023-01-16T00:32:52;94827.16;;;5.16;62.27
37892;BME280;45797;47.466;9.486;2023-01-16T00:37:54;94819.47;;;5.14;61.89
37892;BME280;45797;47.466;9.486;2023-01-16T00:42:55;94801.72;;;5.08;62.61
37892;BME280;45797;47.466;9.486;2023-01-16T00:47:56;94795.06;;;5.04;62.45
37892;BME280;45797;47.466;9.486;2023-01-16T00:52:58;94779.06;;;4.98;63.25
37892;BME280;45797;47.466;9.486;2023-01-16T00:57:59;94778.47;;;4.94;62.19
37892;BME280;45797;47.466;9.486;2023-01-16T01:03:10;94772.00;;;4.87;62.10
37892;BME280;45797;47.466;9.486;2023-01-16T01:08:12;94762.47;;;4.87;62.23
37892;BME280;45797;47.466;9.486;2023-01-16T01:13:15;94747.19;;;4.83;62.40
37892;BME280;45797;47.466;9.486;2023-01-16T01:18:15;94738.19;;;4.76;62.57
37892;BME280;45797;47.466;9.486;2023-01-16T01:23:22;94738.28;;;4.74;62.32
37892;BME280;45797;47.466;9.486;2023-01-16T01:28:48;94725.63;;;4.70;62.08
37892;BME280;45797;47.466;9.486;2023-01-16T01:33:48;94715.13;;;4.71;62.37
37892;BME280;45797;47.466;9.486;2023-01-16T01:38:57;94703.81;;;4.72;61.96
37892;BME280;45797;47.466;9.486;2023-01-16T01:43:57;94698.56;;;4.74;62.39
37892;BME280;45797;47.466;9.486;2023-01-16T01:49:26;94690.25;;;4.69;62.29
37892;BME280;45797;47.466;9.486;2023-01-16T01:54:38;94670.13;;;4.72;61.70
37892;BME280;45797;47.466;9.486;2023-01-16T01:59:45;94652.78;;;4.73;61.85
37892;BME280;45797;47.466;9.486;2023-01-16T02:04:47;94635.38;;;4.75;61.83
37892;BME280;45797;47.466;9.486;2023-01-16T02:10:20;94615.88;;;4.69;61.96
37892;BME280;45797;47.466;9.486;2023-01-16T02:15:23;94611.09;;;4.76;61.93
37892;BME280;45797;47.466;9.486;2023-01-16T02:20:26;94597.09;;;4.78;61.29
37892;BME280;45797;47.466;9.486;2023-01-16T02:53:36;94508.09;;;4.78;61.13
37892;BME280;45797;47.466;9.486;2023-01-16T02:58:47;94492.31;;;4.81;61.10
37892;BME280;45797;47.466;9.486;2023-01-16T03:09:15;94460.16;;;4.83;60.78
37892;BME280;45797;47.466;9.486;2023-01-16T03:14:37;94445.44;;;4.84;60.73
37892;BME280;45797;47.466;9.486;2023-01-16T03:30:12;94413.41;;;4.72;61.12
37892;BME280;45797;47.466;9.486;2023-01-16T03:40:38;94385.69;;;4.73;61.38
37892;BME280;45797;47.466;9.486;2023-01-16T03:45:44;94380.50;;;4.73;60.79
37892;BME280;45797;47.466;9.486;2023-01-16T03:50:53;94364.88;;;4.74;60.88
37892;BME280;45797;47.466;9.486;2023-01-16T04:06:30;94290.69;;;4.72;60.43
37892;BME280;45797;47.466;9.486;2023-01-16T04:11:35;94266.66;;;4.70;60.85
37892;BME280;45797;47.466;9.486;2023-01-16T04:16:38;94245.91;;;4.58;60.64
37892;BME280;45797;47.466;9.486;2023-01-16T04:21:44;94225.94;;;4.48;60.70
37892;BME280;45797;47.466;9.486;2023-01-16T04:26:48;94223.91;;;4.40;60.73
37892;BME280;45797;47.466;9.486;2023-01-16T04:31:51;94201.28;;;4.31;61.09
37892;BME280;45797;47.466;9.486;2023-01-16T04:36:52;94175.94;;;4.23;60.80
37892;BME280;45797;47.466;9.486;2023-01-16T04:41:52;94159.41;;;4.13;61.48
37892;BME280;45797;47.466;9.486;2023-01-16T04:46:55;94142.34;;;4.11;60.87
37892;BME280;45797;47.466;9.486;2023-01-16T04:51:57;94125.59;;;4.04;61.15
37892;BME280;45797;47.466;9.486;2023-01-16T04:57:15;94105.78;;;3.91;61.53
37892;BME280;45797;47.466;9.486;2023-01-16T05:02:15;94092.00;;;3.91;61.41
37892;BME280;45797;47.466;9.486;2023-01-16T05:07:15;94075.84;;;3.87;61.04
37892;BME280;45797;47.466;9.486;2023-01-16T05:12:15;94067.38;;;3.85;60.79
37892;BME280;45797;47.466;9.486;2023-01-16T05:17:17;94054.00;;;3.91;60.78
37892;BME280;45797;47.466;9.486;2023-01-16T05:22:18;94040.56;;;3.97;60.52
37892;BME280;45797;47.466;9.486;2023-01-16T05:27:19;94020.72;;;3.98;60.55
37892;BME280;45797;47.466;9.486;2023-01-16T05:32:19;93995.16;;;3.93;60.30
37892;BME280;45797;47.466;9.486;2023-01-16T05:37:20;93973.25;;;3.97;60.38
37892;BME280;45797;47.466;9.486;2023-01-16T05:42:21;93955.59;;;4.03;60.08
37892;BME280;45797;47.466;9.486;2023-01-16T05:47:28;93941.00;;;4.13;60.08
37892;BME280;45797;47.466;9.486;2023-01-16T05:52:43;93921.06;;;4.36;59.12
37892;BME280;45797;47.466;9.486;2023-01-16T05:57:51;93903.97;;;4.44;58.65
37892;BME280;45797;47.466;9.486;2023-01-16T06:02:57;93893.63;;;4.44;59.05
37892;BME280;45797;47.466;9.486;2023-01-16T06:08:00;93882.31;;;4.45;59.10
37892;BME280;45797;47.466;9.486;2023-01-16T06:13:01;93871.59;;;4.50;58.52
37892;BME280;45797;47.466;9.486;2023-01-16T06:18:02;93869.34;;;4.45;58.67
37892;BME280;45797;47.466;9.486;2023-01-16T06:23:02;93842.91;;;4.30;59.24
37892;BME280;45797;47.466;9.486;2023-01-16T06:28:15;93833.28;;;4.10;59.68
37892;BME280;45797;47.466;9.486;2023-01-16T06:33:16;93822.59;;;4.04;59.61
37892;BME280;45797;47.466;9.486;2023-01-16T06:38:16;93810.72;;;4.01;59.93
37892;BME280;45797;47.466;9.486;2023-01-16T06:43:16;93795.78;;;3.93;59.73
37892;BME280;45797;47.466;9.486;2023-01-16T06:48:17;93788.25;;;3.90;60.01
37892;BME280;45797;47.466;9.486;2023-01-16T06:53:27;93757.41;;;3.87;59.61
37892;BME280;45797;47.466;9.486;2023-01-16T06:58:28;93746.22;;;3.87;59.93
37892;BME280;45797;47.466;9.486;2023-01-16T07:03:44;93711.19;;;3.83;60.01
37892;BME280;45797;47.466;9.486;2023-01-16T07:08:45;93697.88;;;3.87;59.89
37892;BME280;45797;47.466;9.486;2023-01-16T07:13:51;93680.47;;;3.89;59.84
37892;BME280;45797;47.466;9.486;2023-01-16T07:19:20;93670.34;;;3.86;60.19
37892;BME280;45797;47.466;9.486;2023-01-16T07:24:46;93653.97;;;3.86;59.42
37892;BME280;45797;47.466;9.486;2023-01-16T07:29:49;93634.22;;;3.85;59.78
37892;BME280;45797;47.466;9.486;2023-01-16T07:34:51;93591.63;;;3.89;60.25
37892;BME280;45797;47.466;9.486;2023-01-16T07:46:21;93599.34;;;3.68;59.91
37892;BME280;45797;47.466;9.486;2023-01-16T07:51:24;93569.03;;;3.59;60.90
37892;BME280;45797;47.466;9.486;2023-01-16T07:56:31;93565.41;;;3.50;60.70
37892;BME280;45797;47.466;9.486;2023-01-16T08:01:34;93540.97;;;3.54;60.93
37892;BME280;45797;47.466;9.486;2023-01-16T08:06:34;93529.78;;;3.54;60.81
37892;BME280;45797;47.466;9.486;2023-01-16T08:11:39;93515.78;;;3.56;60.67
37892;BME280;45797;47.466;9.486;2023-01-16T08:16:40;93530.13;;;3.60;60.71
37892;BME280;45797;47.466;9.486;2023-01-16T08:21:42;93533.38;;;3.62;60.58
37892;BME280;45797;47.466;9.486;2023-01-16T08:26:44;93515.75;;;3.77;60.26
37892;BME280;45797;47.466;9.486;2023-01-16T08:31:44;93499.78;;;3.93;60.41
37892;BME280;45797;47.466;9.486;2023-01-16T08:36:56;93487.88;;;4.11;59.78
37892;BME280;45797;47.466;9.486;2023-01-16T08:41:57;93469.84;;;4.30;59.19
37892;BME280;45797;47.466;9.486;2023-01-16T08:47:25;93464.53;;;4.42;59.09
37892;BME280;45797;47.466;9.486;2023-01-16T08:52:45;93441.69;;;4.56;58.86
37892;BME280;45797;47.466;9.486;2023-01-16T08:57:47;93417.94;;;4.71;58.75
37892;BME280;45797;47.466;9.486;2023-01-16T09:02:48;93425.34;;;4.85;58.22
37892;BME280;45797;47.466;9.486;2023-01-16T09:07:50;93430.53;;;5.04;57.95
37892;BME280;45797;47.466;9.486;2023-01-16T09:12:51;93431.34;;;5.24;57.57
37892;BME280;45797;47.466;9.486;2023-01-16T09:18:11;93428.06;;;5.41;57.20
37892;BME280;45797;47.466;9.486;2023-01-16T09:23:12;93468.75;;;5.60;57.15
37892;BME280;45797;47.466;9.486;2023-01-16T09:28:18;93480.19;;;5.67;56.79
37892;BME280;45797;47.466;9.486;2023-01-16T09:33:20;93484.31;;;5.70;57.03
37892;BME280;45797;47.466;9.486;2023-01-16T09:38:21;93485.25;;;5.69;57.14
37892;BME280;45797;47.466;9.486;2023-01-16T09:48:48;93488.81;;;5.97;56.13
37892;BME280;45797;47.466;9.486;2023-01-16T09:54:16;93501.75;;;6.07;56.32
37892;BME280;45797;47.466;9.486;2023-01-16T09:59:45;93488.75;;;6.16;55.76
37892;BME280;45797;47.466;9.486;2023-01-16T10:04:49;93482.34;;;6.01;56.46
37892;BME280;45797;47.466;9.486;2023-01-16T10:27:09;93484.03;;;5.63;57.53
37892;BME280;45797;47.466;9.486;2023-01-16T10:37:18;93471.84;;;5.93;56.44
37892;BME280;45797;47.466;9.486;2023-01-16T10:42:31;93467.06;;;5.98;56.29
37892;BME280;45797;47.466;9.486;2023-01-16T10:48:03;93463.63;;;5.97;56.11
37892;BME280;45797;47.466;9.486;2023-01-16T10:53:39;93471.31;;;5.70;56.67
37892;BME280;45797;47.466;9.486;2023-01-16T10:58:43;93482.13;;;5.46;57.62
37892;BME280;45797;47.466;9.486;2023-01-16T11:03:54;93489.38;;;5.33;57.79
37892;BME280;45797;47.466;9.486;2023-01-16T11:09:18;93477.47;;;5.30;57.82
37892;BME280;45797;47.466;9.486;2023-01-16T11:14:45;93470.81;;;5.28;57.74
37892;BME280;45797;47.466;9.486;2023-01-16T11:20:07;93459.31;;;5.40;57.36
37892;BME280;45797;47.466;9.486;2023-01-16T11:25:13;93465.34;;;5.50;56.56
37892;BME280;45797;47.466;9.486;2023-01-16T11:30:21;93462.31;;;5.64;56.46
37892;BME280;45797;47.466;9.486;2023-01-16T11:35:35;93451.22;;;5.72;56.20
37892;BME280;45797;47.466;9.486;2023-01-16T11:40:43;93410.47;;;5.82;56.12
37892;BME280;45797;47.466;9.486;2023-01-16T11:45:47;93404.97;;;5.95;55.70
37892;BME280;45797;47.466;9.486;2023-01-16T11:51:04;93370.19;;;6.06;56.22
37892;BME280;45797;47.466;9.486;2023-01-16T12:01:30;93333.75;;;6.15;55.78
37892;BME280;45797;47.466;9.486;2023-01-16T12:07:19;93327.69;;;6.24;55.45
37892;BME280;45797;47.466;9.486;2023-01-16T12:12:35;93327.69;;;6.24;55.90
37892;BME280;45797;47.466;9.486;2023-01-16T12:18:32;93316.16;;;6.37;55.19
37892;BME280;45797;47.466;9.486;2023-01-16T12:23:59;93306.19;;;6.50;55.19
37892;BME280;45797;47.466;9.486;2023-01-16T12:29:30;93307.59;;;6.62;55.24
37892;BME280;45797;47.466;9.486;2023-01-16T12:40:00;93307.00;;;6.86;55.35
37892;BME280;45797;47.466;9.486;2023-01-16T12:50:58;93304.00;;;6.99;55.06
37892;BME280;45797;47.466;9.486;2023-01-16T13:01:24;93309.41;;;7.05;55.25
37892;BME280;45797;47.466;9.486;2023-01-16T13:06:38;93294.47;;;7.07;55.68
37892;BME280;45797;47.466;9.486;2023-01-16T13:11:51;93279.50;;;7.09;56.12
37892;BME280;45797;47.466;9.486;2023-01-16T13:17:19;93264.88;;;7.08;55.54
37892;BME280;45797;47.466;9.486;2023-01-16T13:22:41;93296.63;;;7.12;56.23
37892;BME280;45797;47.466;9.486;2023-01-16T13:28:21;93277.94;;;7.16;55.88
37892;BME280;45797;47.466;9.486;2023-01-16T13:33:29;93222.59;;;7.40;55.88
37892;BME280;45797;47.466;9.486;2023-01-16T13:38:53;93227.25;;;7.63;55.34
37892;BME280;45797;47.466;9.486;2023-01-16T13:49:25;93191.50;;;7.89;55.34
37892;BME280;45797;47.466;9.486;2023-01-16T13:54:48;93146.56;;;8.03;54.91
37892;BME280;45797;47.466;9.486;2023-01-16T14:00:01;93149.19;;;8.28;54.97
37892;BME280;45797;47.466;9.486;2023-01-16T14:05:41;93143.47;;;7.92;55.29
37892;BME280;45797;47.466;9.486;2023-01-16T14:16:37;93152.78;;;7.44;56.59
37892;BME280;45797;47.466;9.486;2023-01-16T14:21:43;93160.97;;;7.15;56.84
37892;BME280;45797;47.466;9.486;2023-01-16T14:27:03;93140.13;;;7.07;57.24
37892;BME280;45797;47.466;9.486;2023-01-16T14:53:41;93140.66;;;6.84;57.70
37892;BME280;45797;47.466;9.486;2023-01-16T14:59:16;93175.38;;;6.49;57.96
37892;BME280;45797;47.466;9.486;2023-01-16T15:04:22;93174.16;;;6.36;58.69
37892;BME280;45797;47.466;9.486;2023-01-16T15:09:42;93147.47;;;6.34;58.42
37892;BME280;45797;47.466;9.486;2023-01-16T15:14:54;93132.75;;;6.42;58.35
37892;BME280;45797;47.466;9.486;2023-01-16T15:31:00;93093.31;;;6.81;57.03
37892;BME280;45797;47.466;9.486;2023-01-16T15:36:23;93092.94;;;7.02;56.38
37892;BME280;45797;47.466;9.486;2023-01-16T15:41:28;93108.31;;;7.21;56.35
37892;BME280;45797;47.466;9.486;2023-01-16T15:52:35;93100.88;;;7.42;55.59
37892;BME280;45797;47.466;9.486;2023-01-16T15:57:55;93097.97;;;7.54;55.14
37892;BME280;45797;47.466;9.486;2023-01-16T16:03:10;93110.69;;;7.65;55.01
37892;BME280;45797;47.466;9.486;2023-01-16T16:08:17;93109.72;;;7.66;54.53
37892;BME280;45797;47.466;9.486;2023-01-16T16:13:19;93117.53;;;7.66;55.28
37892;BME280;45797;47.466;9.486;2023-01-16T16:18:20;93128.59;;;7.60;55.03
37892;BME280;45797;47.466;9.486;2023-01-16T16:23:26;93124.66;;;7.56;54.93
37892;BME280;45797;47.466;9.486;2023-01-16T16:28:32;93135.25;;;7.54;55.25
37892;BME280;45797;47.466;9.486;2023-01-16T16:34:20;93136.72;;;7.57;55.05
37892;BME280;45797;47.466;9.486;2023-01-16T16:39:45;93132.66;;;7.62;54.71
37892;BME280;45797;47.466;9.486;2023-01-16T16:45:25;93136.09;;;7.71;54.50
37892;BME280;45797;47.466;9.486;2023-01-16T16:50:40;93138.72;;;7.79;54.15
37892;BME280;45797;47.466;9.486;2023-01-16T16:55:44;93138.91;;;7.94;53.86
37892;BME280;45797;47.466;9.486;2023-01-16T17:00:49;93148.53;;;8.01;53.59
37892;BME280;45797;47.466;9.486;2023-01-16T17:05:54;93142.97;;;8.05;53.41
37892;BME280;45797;47.466;9.486;2023-01-16T17:10:55;93119.38;;;8.06;53.07
37892;BME280;45797;47.466;9.486;2023-01-16T17:16:00;93143.16;;;8.11;53.27
37892;BME280;45797;47.466;9.486;2023-01-16T17:21:05;93144.94;;;8.11;53.00
37892;BME280;45797;47.466;9.486;2023-01-16T17:26:06;93148.03;;;8.14;53.50
37892;BME280;45797;47.466;9.486;2023-01-16T17:31:16;93151.78;;;8.12;53.12
37892;BME280;45797;47.466;9.486;2023-01-16T17:36:24;93135.50;;;8.01;53.44
37892;BME280;45797;47.466;9.486;2023-01-16T17:41:26;93130.44;;;7.92;53.88
37892;BME280;45797;47.466;9.486;2023-01-16T17:46:44;93137.78;;;7.88;53.72
37892;BME280;45797;47.466;9.486;2023-01-16T17:51:50;93162.50;;;7.84;53.16
37892;BME280;45797;47.466;9.486;2023-01-16T17:56:53;93177.00;;;7.79;53.40
37892;BME280;45797;47.466;9.486;2023-01-16T18:01:53;93196.22;;;7.78;53.68
37892;BME280;45797;47.466;9.486;2023-01-16T18:06:58;93218.00;;;7.77;53.66
37892;BME280;45797;47.466;9.486;2023-01-16T18:12:04;93239.69;;;7.77;53.51
37892;BME280;45797;47.466;9.486;2023-01-16T18:17:25;93244.75;;;7.79;53.24
37892;BME280;45797;47.466;9.486;2023-01-16T18:22:29;93246.53;;;7.78;53.18
37892;BME280;45797;47.466;9.486;2023-01-16T18:27:40;93240.34;;;7.79;53.43
37892;BME280;45797;47.466;9.486;2023-01-16T18:32:42;93232.53;;;7.79;53.49
37892;BME280;45797;47.466;9.486;2023-01-16T18:38:08;93223.69;;;7.72;53.59
37892;BME280;45797;47.466;9.486;2023-01-16T18:43:36;93226.91;;;7.66;53.25
37892;BME280;45797;47.466;9.486;2023-01-16T18:49:04;93219.44;;;7.63;53.13
37892;BME280;45797;47.466;9.486;2023-01-16T18:54:24;93214.84;;;7.57;53.09
37892;BME280;45797;47.466;9.486;2023-01-16T18:59:50;93220.22;;;7.55;53.08
37892;BME280;45797;47.466;9.486;2023-01-16T19:05:11;93225.25;;;7.57;53.05
37892;BME280;45797;47.466;9.486;2023-01-16T19:10:16;93207.56;;;7.60;52.81
37892;BME280;45797;47.466;9.486;2023-01-16T19:15:20;93209.63;;;7.57;52.55
37892;BME280;45797;47.466;9.486;2023-01-16T19:20:23;93206.53;;;7.53;52.57
37892;BME280;45797;47.466;9.486;2023-01-16T19:25:25;93209.91;;;7.45;52.75
37892;BME280;45797;47.466;9.486;2023-01-16T19:30:32;93202.59;;;7.41;52.80
37892;BME280;45797;47.466;9.486;2023-01-16T19:35:33;93208.91;;;7.38;52.33
37892;BME280;45797;47.466;9.486;2023-01-16T19:40:59;93202.06;;;7.37;52.42
37892;BME280;45797;47.466;9.486;2023-01-16T19:46:00;93207.97;;;7.39;52.52
37892;BME280;45797;47.466;9.486;2023-01-16T19:51:18;93207.28;;;7.37;52.97
37892;BME280;45797;47.466;9.486;2023-01-16T19:56:20;93217.34;;;7.32;52.37
37892;BME280;45797;47.466;9.486;2023-01-16T20:01:24;93215.69;;;7.23;52.32
37892;BME280;45797;47.466;9.486;2023-01-16T20:06:27;93217.59;;;7.13;53.09
37892;BME280;45797;47.466;9.486;2023-01-16T20:11:27;93210.69;;;7.04;52.76
37892;BME280;45797;47.466;9.486;2023-01-16T20:16:49;93220.06;;;6.97;52.99
37892;BME280;45797;47.466;9.486;2023-01-16T20:21:54;93208.50;;;6.91;52.85
37892;BME280;45797;47.466;9.486;2023-01-16T20:27:10;93229.13;;;6.84;52.67
37892;BME280;45797;47.466;9.486;2023-01-16T20:32:19;93234.75;;;6.80;52.76
37892;BME280;45797;47.466;9.486;2023-01-16T20:37:27;93255.38;;;6.73;52.74
37892;BME280;45797;47.466;9.486;2023-01-16T20:42:28;93245.56;;;6.67;52.70
37892;BME280;45797;47.466;9.486;2023-01-16T20:47:52;93238.34;;;6.61;53.01
37892;BME280;45797;47.466;9.486;2023-01-16T20:52:56;93250.69;;;6.59;53.22
37892;BME280;45797;47.466;9.486;2023-01-16T20:58:00;93247.59;;;6.55;53.12
37892;BME280;45797;47.466;9.486;2023-01-16T21:03:03;93252.94;;;6.54;52.71
37892;BME280;45797;47.466;9.486;2023-01-16T21:08:08;93253.88;;;6.53;52.86
37892;BME280;45797;47.466;9.486;2023-01-16T21:13:10;93256.94;;;6.48;53.09
37892;BME280;45797;47.466;9.486;2023-01-16T21:18:39;93245.06;;;6.46;52.91
37892;BME280;45797;47.466;9.486;2023-01-16T21:24:17;93250.69;;;6.41;53.35
37892;BME280;45797;47.466;9.486;2023-01-16T21:29:18;93255.56;;;6.36;53.32
37892;BME280;45797;47.466;9.486;2023-01-16T21:34:19;93258.34;;;6.43;52.61
37892;BME280;45797;47.466;9.486;2023-01-16T21:39:21;93258.81;;;6.56;52.46
37892;BME280;45797;47.466;9.486;2023-01-16T21:44:23;93273.78;;;6.62;52.45
37892;BME280;45797;47.466;9.486;2023-01-16T21:49:42;93349.19;;;6.62;52.11
37892;BME280;45797;47.466;9.486;2023-01-16T21:54:50;93360.34;;;6.37;53.55
37892;BME280;45797;47.466;9.486;2023-01-16T21:59:53;93344.06;;;5.80;54.76
37892;BME280;45797;47.466;9.486;2023-01-16T22:05:02;93303.28;;;5.15;56.28
37892;BME280;45797;47.466;9.486;2023-01-16T22:10:10;93314.38;;;4.79;57.08
37892;BME280;45797;47.466;9.486;2023-01-16T22:15:10;93317.00;;;4.59;57.89
37892;BME280;45797;47.466;9.486;2023-01-16T22:20:29;93322.19;;;4.50;57.63
37892;BME280;45797;47.466;9.486;2023-01-16T22:25:40;93342.09;;;4.49;58.46
37892;BME280;45797;47.466;9.486;2023-01-16T22:31:02;93353.00;;;4.43;58.36
37892;BME280;45797;47.466;9.486;2023-01-16T22:36:04;93333.50;;;4.49;58.35
37892;BME280;45797;47.466;9.486;2023-01-16T22:41:10;93330.78;;;4.50;58.34
37892;BME280;45797;47.466;9.486;2023-01-16T22:46:14;93336.50;;;4.54;58.16
37892;BME280;45797;47.466;9.486;2023-01-16T22:51:32;93357.09;;;4.55;58.27
37892;BME280;45797;47.466;9.486;2023-01-16T22:56:37;93357.34;;;4.52;58.73
37892;BME280;45797;47.466;9.486;2023-01-16T23:01:43;93343.06;;;4.48;59.08
37892;BME280;45797;47.466;9.486;2023-01-16T23:06:44;93340.72;;;4.45;59.13
37892;BME280;45797;47.466;9.486;2023-01-16T23:11:56;93339.47;;;4.30;59.61
37892;BME280;45797;47.466;9.486;2023-01-16T23:17:04;93336.34;;;4.26;59.72
37892;BME280;45797;47.466;9.486;2023-01-16T23:22:04;93334.31;;;4.30;60.07
37892;BME280;45797;47.466;9.486;2023-01-16T23:27:10;93325.72;;;4.29;59.71
37892;BME280;45797;47.466;9.486;2023-01-16T23:32:12;93325.72;;;4.29;60.05
37892;BME280;45797;47.466;9.486;2023-01-16T23:37:12;93310.44;;;4.26;60.17
37892;BME280;45797;47.466;9.486;2023-01-16T23:42:12;93303.59;;;4.25;60.20
37892;BME280;45797;47.466;9.486;2023-01-16T23:47:31;93295.16;;;4.23;60.48
37892;BME280;45797;47.466;9.486;2023-01-16T23:52:43;93292.72;;;4.22;60.04
37892;BME280;45797;47.466;9.486;2023-01-16T23:57:46;93290.78;;;4.24;60.59
